sensor_id;sensor_type;location;lat;lon;timestamp;P1;durP1;ratioP1;P2;durP2;ratioP2
30287;SDS011;17103;48.316;11.558;2023-09-08T00:00:32;3.60;;;3.20;;
30287;SDS011;17103;48.316;11.558;2023-09-08T00:02:57;3.17;;;2.75;;
30287;SDS011;17103;48.316;11.558;2023-09-08T00:05:23;3.22;;;2.92;;
30287;SDS011;17103;48.316;11.558;2023-09-08T00:07:48;3.05;;;2.53;;
30287;SDS011;17103;48.316;11.558;2023-09-08T00:10:14;3.53;;;2.45;;
30287;SDS011;17103;48.316;11.558;2023-09-08T00:12:41;6.07;;;3.00;;
30287;SDS011;17103;48.316;11.558;2023-09-08T00:17:35;4.28;;;3.53;;
30287;SDS011;17103;48.316;11.558;2023-09-08T00:20:01;3.58;;;2.70;;
30287;SDS011;17103;48.316;11.558;2023-09-08T00:22:34;4.15;;;3.00;;
30287;SDS011;17103;48.316;11.558;2023-09-08T00:25:04;3.78;;;2.95;;
30287;SDS011;17103;48.316;11.558;2023-09-08T00:27:31;3.15;;;2.70;;
30287;SDS011;17103;48.316;11.558;2023-09-08T00:29:57;3.70;;;2.90;;
30287;SDS011;17103;48.316;11.558;2023-09-08T00:32:23;3.35;;;2.75;;
30287;SDS011;17103;48.316;11.558;2023-09-08T00:34:48;8.13;;;3.15;;
30287;SDS011;17103;48.316;11.558;2023-09-08T00:37:14;3.95;;;2.53;;
30287;SDS011;17103;48.316;11.558;2023-09-08T00:39:39;4.25;;;3.30;;
30287;SDS011;17103;48.316;11.558;2023-09-08T00:42:05;4.05;;;3.28;;
30287;SDS011;17103;48.316;11.558;2023-09-08T00:44:32;6.38;;;3.05;;
30287;SDS011;17103;48.316;11.558;2023-09-08T00:46:58;3.72;;;2.72;;
30287;SDS011;17103;48.316;11.558;2023-09-08T00:49:24;4.28;;;3.10;;
30287;SDS011;17103;48.316;11.558;2023-09-08T00:51:50;5.07;;;3.30;;
30287;SDS011;17103;48.316;11.558;2023-09-08T00:54:16;3.28;;;2.97;;
30287;SDS011;17103;48.316;11.558;2023-09-08T00:56:43;3.03;;;2.53;;
30287;SDS011;17103;48.316;11.558;2023-09-08T00:59:11;3.22;;;2.92;;
30287;SDS011;17103;48.316;11.558;2023-09-08T01:01:37;5.25;;;2.85;;
30287;SDS011;17103;48.316;11.558;2023-09-08T01:04:06;4.60;;;3.10;;
30287;SDS011;17103;48.316;11.558;2023-09-08T01:06:32;3.45;;;3.15;;
30287;SDS011;17103;48.316;11.558;2023-09-08T01:08:59;3.75;;;3.05;;
30287;SDS011;17103;48.316;11.558;2023-09-08T01:11:24;4.35;;;2.95;;
30287;SDS011;17103;48.316;11.558;2023-09-08T01:13:51;5.00;;;3.22;;
30287;SDS011;17103;48.316;11.558;2023-09-08T01:16:16;4.82;;;2.90;;
30287;SDS011;17103;48.316;11.558;2023-09-08T01:18:43;4.68;;;3.42;;
30287;SDS011;17103;48.316;11.558;2023-09-08T01:26:46;3.03;;;2.60;;
30287;SDS011;17103;48.316;11.558;2023-09-08T01:29:12;5.32;;;2.80;;
30287;SDS011;17103;48.316;11.558;2023-09-08T01:31:41;3.30;;;2.63;;
30287;SDS011;17103;48.316;11.558;2023-09-08T01:34:07;4.43;;;3.25;;
30287;SDS011;17103;48.316;11.558;2023-09-08T01:36:34;5.32;;;3.20;;
30287;SDS011;17103;48.316;11.558;2023-09-08T01:39:00;5.05;;;3.30;;
30287;SDS011;17103;48.316;11.558;2023-09-08T01:41:27;3.22;;;2.85;;
30287;SDS011;17103;48.316;11.558;2023-09-08T01:43:52;4.70;;;3.22;;
30287;SDS011;17103;48.316;11.558;2023-09-08T01:46:19;6.45;;;4.07;;
30287;SDS011;17103;48.316;11.558;2023-09-08T01:48:45;3.70;;;3.33;;
30287;SDS011;17103;48.316;11.558;2023-09-08T01:51:11;3.38;;;2.90;;
30287;SDS011;17103;48.316;11.558;2023-09-08T01:53:37;3.83;;;3.08;;
30287;SDS011;17103;48.316;11.558;2023-09-08T01:56:02;4.57;;;3.38;;
30287;SDS011;17103;48.316;11.558;2023-09-08T01:58:28;3.47;;;3.03;;
30287;SDS011;17103;48.316;11.558;2023-09-08T02:00:56;4.88;;;3.25;;
30287;SDS011;17103;48.316;11.558;2023-09-08T02:03:25;6.40;;;3.55;;
30287;SDS011;17103;48.316;11.558;2023-09-08T02:05:50;6.80;;;4.15;;
30287;SDS011;17103;48.316;11.558;2023-09-08T02:08:17;5.65;;;2.95;;
30287;SDS011;17103;48.316;11.558;2023-09-08T02:10:43;3.30;;;2.92;;
30287;SDS011;17103;48.316;11.558;2023-09-08T02:13:08;4.82;;;3.63;;
30287;SDS011;17103;48.316;11.558;2023-09-08T02:15:34;4.32;;;3.00;;
30287;SDS011;17103;48.316;11.558;2023-09-08T02:18:01;4.25;;;3.33;;
30287;SDS011;17103;48.316;11.558;2023-09-08T02:20:27;4.20;;;3.35;;
30287;SDS011;17103;48.316;11.558;2023-09-08T02:22:53;4.82;;;4.18;;
30287;SDS011;17103;48.316;11.558;2023-09-08T02:25:20;4.00;;;3.47;;
30287;SDS011;17103;48.316;11.558;2023-09-08T02:27:48;5.40;;;3.70;;
30287;SDS011;17103;48.316;11.558;2023-09-08T02:30:13;5.22;;;3.30;;
30287;SDS011;17103;48.316;11.558;2023-09-08T02:32:39;4.35;;;3.20;;
30287;SDS011;17103;48.316;11.558;2023-09-08T02:35:08;5.15;;;3.15;;
30287;SDS011;17103;48.316;11.558;2023-09-08T02:37:37;4.60;;;3.47;;
30287;SDS011;17103;48.316;11.558;2023-09-08T02:40:03;5.13;;;3.28;;
30287;SDS011;17103;48.316;11.558;2023-09-08T02:42:30;5.63;;;3.00;;
30287;SDS011;17103;48.316;11.558;2023-09-08T02:44:56;3.92;;;2.97;;
30287;SDS011;17103;48.316;11.558;2023-09-08T02:47:21;4.57;;;3.50;;
30287;SDS011;17103;48.316;11.558;2023-09-08T02:49:47;3.58;;;3.05;;
30287;SDS011;17103;48.316;11.558;2023-09-08T02:52:13;4.38;;;3.30;;
30287;SDS011;17103;48.316;11.558;2023-09-08T02:54:38;3.67;;;2.95;;
30287;SDS011;17103;48.316;11.558;2023-09-08T02:57:04;5.45;;;3.35;;
30287;SDS011;17103;48.316;11.558;2023-09-08T02:59:30;5.30;;;3.25;;
30287;SDS011;17103;48.316;11.558;2023-09-08T03:01:56;4.47;;;3.95;;
30287;SDS011;17103;48.316;11.558;2023-09-08T03:04:22;7.00;;;2.83;;
30287;SDS011;17103;48.316;11.558;2023-09-08T03:06:48;6.97;;;3.72;;
30287;SDS011;17103;48.316;11.558;2023-09-08T03:09:13;5.50;;;3.72;;
30287;SDS011;17103;48.316;11.558;2023-09-08T03:11:39;4.97;;;3.42;;
30287;SDS011;17103;48.316;11.558;2023-09-08T03:14:06;6.30;;;4.40;;
30287;SDS011;17103;48.316;11.558;2023-09-08T03:16:31;9.05;;;5.05;;
30287;SDS011;17103;48.316;11.558;2023-09-08T03:18:57;7.40;;;5.10;;
30287;SDS011;17103;48.316;11.558;2023-09-08T03:21:23;6.45;;;3.70;;
30287;SDS011;17103;48.316;11.558;2023-09-08T03:23:49;7.38;;;4.55;;
30287;SDS011;17103;48.316;11.558;2023-09-08T03:26:18;5.65;;;4.15;;
30287;SDS011;17103;48.316;11.558;2023-09-08T03:28:44;6.35;;;5.22;;
30287;SDS011;17103;48.316;11.558;2023-09-08T03:31:10;8.15;;;4.30;;
30287;SDS011;17103;48.316;11.558;2023-09-08T03:33:36;5.32;;;4.25;;
30287;SDS011;17103;48.316;11.558;2023-09-08T03:36:02;6.75;;;4.75;;
30287;SDS011;17103;48.316;11.558;2023-09-08T03:38:28;7.47;;;5.00;;
30287;SDS011;17103;48.316;11.558;2023-09-08T03:40:56;5.85;;;4.70;;
30287;SDS011;17103;48.316;11.558;2023-09-08T03:43:22;8.02;;;4.18;;
30287;SDS011;17103;48.316;11.558;2023-09-08T03:45:48;5.63;;;4.30;;
30287;SDS011;17103;48.316;11.558;2023-09-08T03:48:14;6.07;;;3.65;;
30287;SDS011;17103;48.316;11.558;2023-09-08T03:50:41;5.93;;;4.03;;
30287;SDS011;17103;48.316;11.558;2023-09-08T03:53:17;8.32;;;4.20;;
30287;SDS011;17103;48.316;11.558;2023-09-08T03:55:42;6.05;;;3.85;;
30287;SDS011;17103;48.316;11.558;2023-09-08T03:58:08;4.07;;;3.67;;
30287;SDS011;17103;48.316;11.558;2023-09-08T04:00:34;4.40;;;3.85;;
30287;SDS011;17103;48.316;11.558;2023-09-08T04:03:00;3.78;;;3.13;;
30287;SDS011;17103;48.316;11.558;2023-09-08T04:05:26;4.93;;;3.75;;
30287;SDS011;17103;48.316;11.558;2023-09-08T04:07:51;6.90;;;3.75;;
30287;SDS011;17103;48.316;11.558;2023-09-08T04:10:17;4.40;;;3.95;;
30287;SDS011;17103;48.316;11.558;2023-09-08T04:12:43;4.82;;;3.55;;
30287;SDS011;17103;48.316;11.558;2023-09-08T04:15:11;6.97;;;3.85;;
30287;SDS011;17103;48.316;11.558;2023-09-08T04:17:37;7.07;;;3.67;;
30287;SDS011;17103;48.316;11.558;2023-09-08T04:20:07;11.02;;;3.80;;
30287;SDS011;17103;48.316;11.558;2023-09-08T04:22:33;4.70;;;3.67;;
30287;SDS011;17103;48.316;11.558;2023-09-08T04:25:01;6.30;;;3.88;;
30287;SDS011;17103;48.316;11.558;2023-09-08T04:27:27;4.20;;;3.30;;
30287;SDS011;17103;48.316;11.558;2023-09-08T04:29:53;3.40;;;3.08;;
30287;SDS011;17103;48.316;11.558;2023-09-08T04:32:18;6.47;;;3.70;;
30287;SDS011;17103;48.316;11.558;2023-09-08T04:34:44;5.70;;;3.67;;
30287;SDS011;17103;48.316;11.558;2023-09-08T04:37:09;4.40;;;3.78;;
30287;SDS011;17103;48.316;11.558;2023-09-08T04:39:35;3.55;;;3.13;;
30287;SDS011;17103;48.316;11.558;2023-09-08T04:42:02;4.05;;;3.38;;
30287;SDS011;17103;48.316;11.558;2023-09-08T04:44:28;4.63;;;3.80;;
30287;SDS011;17103;48.316;11.558;2023-09-08T04:46:54;4.70;;;3.70;;
30287;SDS011;17103;48.316;11.558;2023-09-08T04:49:19;5.13;;;3.70;;
30287;SDS011;17103;48.316;11.558;2023-09-08T04:51:45;4.68;;;3.38;;
30287;SDS011;17103;48.316;11.558;2023-09-08T04:54:11;6.03;;;4.10;;
30287;SDS011;17103;48.316;11.558;2023-09-08T04:56:38;5.80;;;3.92;;
30287;SDS011;17103;48.316;11.558;2023-09-08T04:59:04;4.50;;;3.95;;
30287;SDS011;17103;48.316;11.558;2023-09-08T05:01:30;5.00;;;4.38;;
30287;SDS011;17103;48.316;11.558;2023-09-08T05:03:57;3.95;;;3.33;;
30287;SDS011;17103;48.316;11.558;2023-09-08T05:06:24;7.22;;;3.72;;
30287;SDS011;17103;48.316;11.558;2023-09-08T05:08:50;3.90;;;3.33;;
30287;SDS011;17103;48.316;11.558;2023-09-08T05:11:16;5.75;;;3.65;;
30287;SDS011;17103;48.316;11.558;2023-09-08T05:13:42;6.60;;;3.50;;
30287;SDS011;17103;48.316;11.558;2023-09-08T05:16:07;4.28;;;3.40;;
30287;SDS011;17103;48.316;11.558;2023-09-08T05:18:37;5.03;;;3.30;;
30287;SDS011;17103;48.316;11.558;2023-09-08T05:21:06;6.03;;;3.55;;
30287;SDS011;17103;48.316;11.558;2023-09-08T05:23:32;6.60;;;3.33;;
30287;SDS011;17103;48.316;11.558;2023-09-08T05:25:57;3.53;;;2.85;;
30287;SDS011;17103;48.316;11.558;2023-09-08T05:28:23;6.55;;;4.07;;
30287;SDS011;17103;48.316;11.558;2023-09-08T05:30:52;6.97;;;3.20;;
30287;SDS011;17103;48.316;11.558;2023-09-08T05:33:18;3.03;;;2.47;;
30287;SDS011;17103;48.316;11.558;2023-09-08T05:35:44;4.03;;;3.03;;
30287;SDS011;17103;48.316;11.558;2023-09-08T05:38:11;4.22;;;2.85;;
30287;SDS011;17103;48.316;11.558;2023-09-08T05:40:37;6.47;;;3.80;;
30287;SDS011;17103;48.316;11.558;2023-09-08T05:43:03;3.88;;;3.50;;
30287;SDS011;17103;48.316;11.558;2023-09-08T05:45:29;3.97;;;3.17;;
30287;SDS011;17103;48.316;11.558;2023-09-08T05:47:57;5.38;;;3.72;;
30287;SDS011;17103;48.316;11.558;2023-09-08T05:50:23;4.63;;;2.88;;
30287;SDS011;17103;48.316;11.558;2023-09-08T05:52:48;7.68;;;2.97;;
30287;SDS011;17103;48.316;11.558;2023-09-08T05:55:14;5.07;;;3.05;;
30287;SDS011;17103;48.316;11.558;2023-09-08T05:57:39;5.15;;;3.10;;
30287;SDS011;17103;48.316;11.558;2023-09-08T06:00:06;4.88;;;3.83;;
30287;SDS011;17103;48.316;11.558;2023-09-08T06:02:32;5.95;;;3.40;;
30287;SDS011;17103;48.316;11.558;2023-09-08T06:04:58;7.07;;;3.70;;
30287;SDS011;17103;48.316;11.558;2023-09-08T06:07:23;6.53;;;4.20;;
30287;SDS011;17103;48.316;11.558;2023-09-08T06:09:49;6.18;;;3.85;;
30287;SDS011;17103;48.316;11.558;2023-09-08T06:12:15;5.05;;;4.40;;
30287;SDS011;17103;48.316;11.558;2023-09-08T06:14:40;8.00;;;4.70;;
30287;SDS011;17103;48.316;11.558;2023-09-08T06:17:06;8.55;;;4.45;;
30287;SDS011;17103;48.316;11.558;2023-09-08T06:19:31;7.03;;;4.70;;
30287;SDS011;17103;48.316;11.558;2023-09-08T06:21:57;6.90;;;4.68;;
30287;SDS011;17103;48.316;11.558;2023-09-08T06:24:23;5.40;;;4.82;;
30287;SDS011;17103;48.316;11.558;2023-09-08T06:26:49;5.15;;;3.97;;
30287;SDS011;17103;48.316;11.558;2023-09-08T06:29:15;5.60;;;4.03;;
30287;SDS011;17103;48.316;11.558;2023-09-08T06:31:40;9.13;;;4.88;;
30287;SDS011;17103;48.316;11.558;2023-09-08T06:34:06;12.77;;;5.53;;
30287;SDS011;17103;48.316;11.558;2023-09-08T06:36:32;5.25;;;4.53;;
30287;SDS011;17103;48.316;11.558;2023-09-08T06:38:57;6.07;;;4.70;;
30287;SDS011;17103;48.316;11.558;2023-09-08T06:41:23;5.32;;;4.20;;
30287;SDS011;17103;48.316;11.558;2023-09-08T06:43:49;6.13;;;4.75;;
30287;SDS011;17103;48.316;11.558;2023-09-08T06:46:14;8.45;;;5.70;;
30287;SDS011;17103;48.316;11.558;2023-09-08T06:48:40;6.93;;;4.78;;
30287;SDS011;17103;48.316;11.558;2023-09-08T06:51:06;6.07;;;4.60;;
30287;SDS011;17103;48.316;11.558;2023-09-08T06:53:31;6.97;;;6.00;;
30287;SDS011;17103;48.316;11.558;2023-09-08T06:55:57;8.48;;;6.75;;
30287;SDS011;17103;48.316;11.558;2023-09-08T06:58:23;10.00;;;6.68;;
30287;SDS011;17103;48.316;11.558;2023-09-08T07:00:49;7.72;;;6.65;;
30287;SDS011;17103;48.316;11.558;2023-09-08T07:03:19;10.90;;;9.00;;
30287;SDS011;17103;48.316;11.558;2023-09-08T07:05:46;8.68;;;6.75;;
30287;SDS011;17103;48.316;11.558;2023-09-08T07:08:12;13.43;;;7.10;;
30287;SDS011;17103;48.316;11.558;2023-09-08T07:10:37;7.97;;;6.80;;
30287;SDS011;17103;48.316;11.558;2023-09-08T07:13:05;10.00;;;6.32;;
30287;SDS011;17103;48.316;11.558;2023-09-08T07:15:34;9.80;;;5.63;;
30287;SDS011;17103;48.316;11.558;2023-09-08T07:18:00;12.30;;;6.30;;
30287;SDS011;17103;48.316;11.558;2023-09-08T07:20:25;6.90;;;6.20;;
30287;SDS011;17103;48.316;11.558;2023-09-08T07:22:51;8.20;;;6.35;;
30287;SDS011;17103;48.316;11.558;2023-09-08T07:25:16;6.78;;;5.10;;
30287;SDS011;17103;48.316;11.558;2023-09-08T07:27:42;7.53;;;6.07;;
30287;SDS011;17103;48.316;11.558;2023-09-08T07:30:07;8.32;;;5.93;;
30287;SDS011;17103;48.316;11.558;2023-09-08T07:32:33;7.82;;;5.75;;
30287;SDS011;17103;48.316;11.558;2023-09-08T07:34:59;5.97;;;5.03;;
30287;SDS011;17103;48.316;11.558;2023-09-08T07:37:24;6.22;;;5.57;;
30287;SDS011;17103;48.316;11.558;2023-09-08T07:39:51;5.88;;;5.22;;
30287;SDS011;17103;48.316;11.558;2023-09-08T07:42:17;6.38;;;5.75;;
30287;SDS011;17103;48.316;11.558;2023-09-08T07:44:44;8.75;;;5.40;;
30287;SDS011;17103;48.316;11.558;2023-09-08T07:47:10;7.43;;;6.22;;
30287;SDS011;17103;48.316;11.558;2023-09-08T07:49:35;8.30;;;6.10;;
30287;SDS011;17103;48.316;11.558;2023-09-08T07:52:01;7.30;;;5.32;;
30287;SDS011;17103;48.316;11.558;2023-09-08T07:54:29;9.43;;;6.43;;
30287;SDS011;17103;48.316;11.558;2023-09-08T07:56:55;8.02;;;6.13;;
30287;SDS011;17103;48.316;11.558;2023-09-08T07:59:20;6.70;;;6.00;;
30287;SDS011;17103;48.316;11.558;2023-09-08T08:01:46;6.70;;;6.07;;
30287;SDS011;17103;48.316;11.558;2023-09-08T08:04:11;6.90;;;5.85;;
30287;SDS011;17103;48.316;11.558;2023-09-08T08:06:37;7.50;;;6.22;;
30287;SDS011;17103;48.316;11.558;2023-09-08T08:09:03;7.40;;;6.25;;
30287;SDS011;17103;48.316;11.558;2023-09-08T08:11:29;7.88;;;6.20;;
30287;SDS011;17103;48.316;11.558;2023-09-08T08:14:02;6.00;;;5.38;;
30287;SDS011;17103;48.316;11.558;2023-09-08T08:16:28;7.68;;;6.78;;
30287;SDS011;17103;48.316;11.558;2023-09-08T08:18:53;10.25;;;6.25;;
30287;SDS011;17103;48.316;11.558;2023-09-08T08:21:19;7.53;;;6.35;;
30287;SDS011;17103;48.316;11.558;2023-09-08T08:23:57;8.00;;;6.80;;
30287;SDS011;17103;48.316;11.558;2023-09-08T08:26:23;8.55;;;7.18;;
30287;SDS011;17103;48.316;11.558;2023-09-08T08:28:52;9.88;;;6.60;;
30287;SDS011;17103;48.316;11.558;2023-09-08T08:31:18;6.80;;;5.70;;
30287;SDS011;17103;48.316;11.558;2023-09-08T08:33:43;9.05;;;7.30;;
30287;SDS011;17103;48.316;11.558;2023-09-08T08:36:18;8.38;;;6.13;;
30287;SDS011;17103;48.316;11.558;2023-09-08T08:39:16;8.20;;;6.93;;
30287;SDS011;17103;48.316;11.558;2023-09-08T08:41:42;10.32;;;6.43;;
30287;SDS011;17103;48.316;11.558;2023-09-08T08:44:08;9.60;;;6.18;;
30287;SDS011;17103;48.316;11.558;2023-09-08T08:46:35;6.72;;;5.95;;
30287;SDS011;17103;48.316;11.558;2023-09-08T08:49:04;8.20;;;6.00;;
30287;SDS011;17103;48.316;11.558;2023-09-08T08:51:30;9.32;;;6.57;;
30287;SDS011;17103;48.316;11.558;2023-09-08T08:53:57;9.73;;;5.43;;
30287;SDS011;17103;48.316;11.558;2023-09-08T08:56:23;7.13;;;5.53;;
30287;SDS011;17103;48.316;11.558;2023-09-08T08:58:49;9.55;;;6.28;;
30287;SDS011;17103;48.316;11.558;2023-09-08T09:01:15;8.40;;;5.85;;
30287;SDS011;17103;48.316;11.558;2023-09-08T09:03:44;7.82;;;6.38;;
30287;SDS011;17103;48.316;11.558;2023-09-08T09:06:14;7.68;;;6.90;;
30287;SDS011;17103;48.316;11.558;2023-09-08T09:08:40;6.95;;;5.72;;
30287;SDS011;17103;48.316;11.558;2023-09-08T09:11:09;5.80;;;5.18;;
30287;SDS011;17103;48.316;11.558;2023-09-08T09:13:35;6.25;;;5.32;;
30287;SDS011;17103;48.316;11.558;2023-09-08T09:16:01;6.75;;;6.05;;
30287;SDS011;17103;48.316;11.558;2023-09-08T09:18:28;9.93;;;6.47;;
30287;SDS011;17103;48.316;11.558;2023-09-08T09:20:56;8.13;;;7.10;;
30287;SDS011;17103;48.316;11.558;2023-09-08T09:23:33;7.03;;;5.70;;
30287;SDS011;17103;48.316;11.558;2023-09-08T09:26:01;6.90;;;5.63;;
30287;SDS011;17103;48.316;11.558;2023-09-08T09:28:31;8.00;;;5.90;;
30287;SDS011;17103;48.316;11.558;2023-09-08T09:30:57;9.48;;;5.88;;
30287;SDS011;17103;48.316;11.558;2023-09-08T09:33:24;7.10;;;5.72;;
30287;SDS011;17103;48.316;11.558;2023-09-08T09:38:16;6.45;;;5.50;;
30287;SDS011;17103;48.316;11.558;2023-09-08T09:40:44;9.02;;;7.40;;
30287;SDS011;17103;48.316;11.558;2023-09-08T09:43:10;6.45;;;5.70;;
30287;SDS011;17103;48.316;11.558;2023-09-08T09:45:37;6.72;;;5.18;;
30287;SDS011;17103;48.316;11.558;2023-09-08T09:48:04;7.10;;;6.15;;
30287;SDS011;17103;48.316;11.558;2023-09-08T09:50:31;5.70;;;5.20;;
30287;SDS011;17103;48.316;11.558;2023-09-08T09:53:03;7.30;;;5.38;;
30287;SDS011;17103;48.316;11.558;2023-09-08T09:55:37;5.15;;;4.65;;
30287;SDS011;17103;48.316;11.558;2023-09-08T09:58:04;7.03;;;5.43;;
30287;SDS011;17103;48.316;11.558;2023-09-08T10:00:30;7.03;;;6.07;;
30287;SDS011;17103;48.316;11.558;2023-09-08T10:02:58;7.00;;;5.47;;
30287;SDS011;17103;48.316;11.558;2023-09-08T10:05:25;6.10;;;5.50;;
30287;SDS011;17103;48.316;11.558;2023-09-08T10:07:51;7.05;;;5.90;;
30287;SDS011;17103;48.316;11.558;2023-09-08T10:10:18;6.85;;;5.40;;
30287;SDS011;17103;48.316;11.558;2023-09-08T10:12:46;9.13;;;8.23;;
30287;SDS011;17103;48.316;11.558;2023-09-08T10:15:19;7.43;;;6.40;;
30287;SDS011;17103;48.316;11.558;2023-09-08T10:17:47;10.20;;;6.22;;
30287;SDS011;17103;48.316;11.558;2023-09-08T10:20:18;8.10;;;5.47;;
30287;SDS011;17103;48.316;11.558;2023-09-08T10:22:47;8.70;;;7.90;;
30287;SDS011;17103;48.316;11.558;2023-09-08T10:25:26;9.38;;;6.90;;
30287;SDS011;17103;48.316;11.558;2023-09-08T10:27:56;7.80;;;6.93;;
30287;SDS011;17103;48.316;11.558;2023-09-08T10:30:21;6.65;;;5.68;;
30287;SDS011;17103;48.316;11.558;2023-09-08T10:32:48;4.97;;;4.45;;
30287;SDS011;17103;48.316;11.558;2023-09-08T10:35:15;5.10;;;4.60;;
30287;SDS011;17103;48.316;11.558;2023-09-08T10:37:42;6.80;;;6.05;;
30287;SDS011;17103;48.316;11.558;2023-09-08T10:43:07;7.10;;;6.18;;
30287;SDS011;17103;48.316;11.558;2023-09-08T10:45:33;6.65;;;5.90;;
30287;SDS011;17103;48.316;11.558;2023-09-08T10:47:59;7.20;;;5.82;;
30287;SDS011;17103;48.316;11.558;2023-09-08T10:50:32;5.95;;;4.97;;
30287;SDS011;17103;48.316;11.558;2023-09-08T10:55:42;8.00;;;5.47;;
30287;SDS011;17103;48.316;11.558;2023-09-08T10:58:16;7.78;;;5.90;;
30287;SDS011;17103;48.316;11.558;2023-09-08T11:00:52;7.95;;;5.82;;
30287;SDS011;17103;48.316;11.558;2023-09-08T11:03:28;9.30;;;5.20;;
30287;SDS011;17103;48.316;11.558;2023-09-08T11:06:03;8.50;;;4.60;;
30287;SDS011;17103;48.316;11.558;2023-09-08T11:08:29;6.88;;;4.80;;
30287;SDS011;17103;48.316;11.558;2023-09-08T11:10:55;6.63;;;5.00;;
30287;SDS011;17103;48.316;11.558;2023-09-08T11:13:21;5.50;;;4.97;;
30287;SDS011;17103;48.316;11.558;2023-09-08T11:15:47;8.63;;;5.43;;
30287;SDS011;17103;48.316;11.558;2023-09-08T11:18:16;9.65;;;5.40;;
30287;SDS011;17103;48.316;11.558;2023-09-08T11:20:41;5.47;;;4.32;;
30287;SDS011;17103;48.316;11.558;2023-09-08T11:23:10;6.38;;;4.70;;
30287;SDS011;17103;48.316;11.558;2023-09-08T11:25:36;7.00;;;4.75;;
30287;SDS011;17103;48.316;11.558;2023-09-08T11:28:02;5.40;;;4.65;;
30287;SDS011;17103;48.316;11.558;2023-09-08T11:30:28;4.45;;;4.05;;
30287;SDS011;17103;48.316;11.558;2023-09-08T11:32:54;5.47;;;4.00;;
30287;SDS011;17103;48.316;11.558;2023-09-08T11:35:19;6.20;;;4.80;;
30287;SDS011;17103;48.316;11.558;2023-09-08T11:37:46;12.02;;;6.25;;
30287;SDS011;17103;48.316;11.558;2023-09-08T11:40:12;9.45;;;5.45;;
30287;SDS011;17103;48.316;11.558;2023-09-08T11:42:39;5.78;;;4.50;;
30287;SDS011;17103;48.316;11.558;2023-09-08T11:45:13;6.70;;;5.75;;
30287;SDS011;17103;48.316;11.558;2023-09-08T11:50:42;8.57;;;5.77;;
30287;SDS011;17103;48.316;11.558;2023-09-08T11:53:08;7.30;;;5.20;;
30287;SDS011;17103;48.316;11.558;2023-09-08T11:55:34;5.30;;;4.30;;
30287;SDS011;17103;48.316;11.558;2023-09-08T11:58:03;6.07;;;5.20;;
30287;SDS011;17103;48.316;11.558;2023-09-08T12:00:30;7.78;;;5.22;;
30287;SDS011;17103;48.316;11.558;2023-09-08T12:03:08;5.95;;;4.72;;
30287;SDS011;17103;48.316;11.558;2023-09-08T12:05:36;7.03;;;4.93;;
30287;SDS011;17103;48.316;11.558;2023-09-08T12:08:03;6.57;;;5.20;;
30287;SDS011;17103;48.316;11.558;2023-09-08T12:10:42;9.52;;;4.95;;
30287;SDS011;17103;48.316;11.558;2023-09-08T12:13:08;8.18;;;4.57;;
30287;SDS011;17103;48.316;11.558;2023-09-08T12:15:35;6.88;;;5.80;;
30287;SDS011;17103;48.316;11.558;2023-09-08T12:18:02;5.97;;;5.00;;
30287;SDS011;17103;48.316;11.558;2023-09-08T12:20:29;8.18;;;4.57;;
30287;SDS011;17103;48.316;11.558;2023-09-08T12:22:57;5.70;;;4.63;;
30287;SDS011;17103;48.316;11.558;2023-09-08T12:25:28;5.38;;;4.82;;
30287;SDS011;17103;48.316;11.558;2023-09-08T12:27:56;8.85;;;5.20;;
30287;SDS011;17103;48.316;11.558;2023-09-08T12:30:23;6.13;;;5.45;;
30287;SDS011;17103;48.316;11.558;2023-09-08T12:32:55;6.05;;;4.80;;
30287;SDS011;17103;48.316;11.558;2023-09-08T12:35:30;5.03;;;4.53;;
30287;SDS011;17103;48.316;11.558;2023-09-08T12:38:03;5.25;;;4.28;;
30287;SDS011;17103;48.316;11.558;2023-09-08T12:40:32;5.88;;;4.57;;
30287;SDS011;17103;48.316;11.558;2023-09-08T12:43:00;9.38;;;4.90;;
30287;SDS011;17103;48.316;11.558;2023-09-08T12:45:26;4.78;;;4.28;;
30287;SDS011;17103;48.316;11.558;2023-09-08T12:47:57;6.05;;;4.75;;
30287;SDS011;17103;48.316;11.558;2023-09-08T12:50:24;6.80;;;4.47;;
30287;SDS011;17103;48.316;11.558;2023-09-08T12:52:53;5.32;;;4.45;;
30287;SDS011;17103;48.316;11.558;2023-09-08T12:55:18;4.82;;;4.15;;
30287;SDS011;17103;48.316;11.558;2023-09-08T12:57:44;6.32;;;4.78;;
30287;SDS011;17103;48.316;11.558;2023-09-08T13:00:11;5.72;;;4.53;;
30287;SDS011;17103;48.316;11.558;2023-09-08T13:02:39;5.28;;;4.43;;
30287;SDS011;17103;48.316;11.558;2023-09-08T13:05:11;4.53;;;4.03;;
30287;SDS011;17103;48.316;11.558;2023-09-08T13:07:38;7.43;;;5.20;;
30287;SDS011;17103;48.316;11.558;2023-09-08T13:10:03;4.45;;;3.72;;
30287;SDS011;17103;48.316;11.558;2023-09-08T13:12:30;5.18;;;3.90;;
30287;SDS011;17103;48.316;11.558;2023-09-08T13:14:56;7.50;;;3.92;;
30287;SDS011;17103;48.316;11.558;2023-09-08T13:17:21;5.35;;;4.40;;
30287;SDS011;17103;48.316;11.558;2023-09-08T13:19:47;7.10;;;4.78;;
30287;SDS011;17103;48.316;11.558;2023-09-08T13:22:15;6.32;;;4.97;;
30287;SDS011;17103;48.316;11.558;2023-09-08T13:24:41;5.00;;;4.50;;
30287;SDS011;17103;48.316;11.558;2023-09-08T13:27:07;6.22;;;3.97;;
30287;SDS011;17103;48.316;11.558;2023-09-08T13:29:32;4.97;;;4.47;;
30287;SDS011;17103;48.316;11.558;2023-09-08T13:31:58;4.15;;;3.75;;
30287;SDS011;17103;48.316;11.558;2023-09-08T13:34:23;5.45;;;4.80;;
30287;SDS011;17103;48.316;11.558;2023-09-08T13:36:50;6.95;;;3.67;;
30287;SDS011;17103;48.316;11.558;2023-09-08T13:39:15;4.35;;;3.92;;
30287;SDS011;17103;48.316;11.558;2023-09-08T13:41:51;5.55;;;4.70;;
30287;SDS011;17103;48.316;11.558;2023-09-08T13:44:22;6.95;;;4.78;;
30287;SDS011;17103;48.316;11.558;2023-09-08T13:46:48;6.32;;;4.43;;
30287;SDS011;17103;48.316;11.558;2023-09-08T13:49:15;5.38;;;4.43;;
30287;SDS011;17103;48.316;11.558;2023-09-08T13:51:41;5.15;;;4.35;;
30287;SDS011;17103;48.316;11.558;2023-09-08T13:54:08;5.85;;;4.53;;
30287;SDS011;17103;48.316;11.558;2023-09-08T13:56:34;7.43;;;4.35;;
30287;SDS011;17103;48.316;11.558;2023-09-08T13:59:03;6.53;;;4.32;;
30287;SDS011;17103;48.316;11.558;2023-09-08T14:01:28;4.63;;;3.75;;
30287;SDS011;17103;48.316;11.558;2023-09-08T14:03:55;4.85;;;4.32;;
30287;SDS011;17103;48.316;11.558;2023-09-08T14:06:21;4.47;;;3.60;;
30287;SDS011;17103;48.316;11.558;2023-09-08T14:08:48;4.53;;;4.13;;
30287;SDS011;17103;48.316;11.558;2023-09-08T14:11:14;4.70;;;4.10;;
30287;SDS011;17103;48.316;11.558;2023-09-08T14:13:39;4.30;;;3.90;;
30287;SDS011;17103;48.316;11.558;2023-09-08T14:16:05;3.78;;;3.47;;
30287;SDS011;17103;48.316;11.558;2023-09-08T14:18:31;5.68;;;4.15;;
30287;SDS011;17103;48.316;11.558;2023-09-08T14:20:56;6.03;;;3.95;;
30287;SDS011;17103;48.316;11.558;2023-09-08T14:23:22;4.35;;;3.95;;
30287;SDS011;17103;48.316;11.558;2023-09-08T14:25:48;5.25;;;4.30;;
30287;SDS011;17103;48.316;11.558;2023-09-08T14:28:13;9.75;;;4.35;;
30287;SDS011;17103;48.316;11.558;2023-09-08T14:31:00;3.85;;;3.50;;
30287;SDS011;17103;48.316;11.558;2023-09-08T14:33:25;5.18;;;4.22;;
30287;SDS011;17103;48.316;11.558;2023-09-08T14:35:51;4.13;;;3.70;;
30287;SDS011;17103;48.316;11.558;2023-09-08T14:38:18;4.60;;;4.20;;
30287;SDS011;17103;48.316;11.558;2023-09-08T14:40:45;4.20;;;3.75;;
30287;SDS011;17103;48.316;11.558;2023-09-08T14:43:18;5.85;;;4.65;;
30287;SDS011;17103;48.316;11.558;2023-09-08T14:45:44;4.68;;;4.20;;
30287;SDS011;17103;48.316;11.558;2023-09-08T14:48:10;7.18;;;4.30;;
30287;SDS011;17103;48.316;11.558;2023-09-08T14:50:36;5.65;;;3.95;;